sensor_id;sensor_type;location;lat;lon;timestamp;P1;durP1;ratioP1;P2;durP2;ratioP2
45077;SDS011;60508;42.622;25.416;2023-11-19T00:00:38;2.17;;;0.75;;
45077;SDS011;60508;42.622;25.416;2023-11-19T00:03:05;0.50;;;0.50;;
45077;SDS011;60508;42.622;25.416;2023-11-19T00:05:31;0.40;;;0.40;;
45077;SDS011;60508;42.622;25.416;2023-11-19T00:07:58;0.52;;;0.50;;
45077;SDS011;60508;42.622;25.416;2023-11-19T00:10:24;0.50;;;0.50;;
45077;SDS011;60508;42.622;25.416;2023-11-19T00:12:51;0.45;;;0.40;;
45077;SDS011;60508;42.622;25.416;2023-11-19T00:15:26;0.30;;;0.30;;
45077;SDS011;60508;42.622;25.416;2023-11-19T00:17:54;1.05;;;0.55;;
45077;SDS011;60508;42.622;25.416;2023-11-19T00:20:21;0.30;;;0.30;;
45077;SDS011;60508;42.622;25.416;2023-11-19T00:23:01;0.30;;;0.30;;
45077;SDS011;60508;42.622;25.416;2023-11-19T00:25:28;0.32;;;0.32;;
45077;SDS011;60508;42.622;25.416;2023-11-19T00:27:55;0.75;;;0.60;;
45077;SDS011;60508;42.622;25.416;2023-11-19T00:30:25;0.85;;;0.60;;
45077;SDS011;60508;42.622;25.416;2023-11-19T00:32:53;0.30;;;0.30;;
45077;SDS011;60508;42.622;25.416;2023-11-19T00:35:28;0.30;;;0.30;;
45077;SDS011;60508;42.622;25.416;2023-11-19T00:37:54;0.77;;;0.40;;
45077;SDS011;60508;42.622;25.416;2023-11-19T00:40:21;1.65;;;0.40;;
45077;SDS011;60508;42.622;25.416;2023-11-19T00:42:49;0.35;;;0.35;;
45077;SDS011;60508;42.622;25.416;2023-11-19T00:45:26;0.30;;;0.30;;
45077;SDS011;60508;42.622;25.416;2023-11-19T00:47:53;0.40;;;0.40;;
45077;SDS011;60508;42.622;25.416;2023-11-19T00:50:19;1.65;;;0.30;;
45077;SDS011;60508;42.622;25.416;2023-11-19T00:52:56;0.30;;;0.30;;
45077;SDS011;60508;42.622;25.416;2023-11-19T00:55:23;0.45;;;0.40;;
45077;SDS011;60508;42.622;25.416;2023-11-19T00:57:49;0.50;;;0.47;;
45077;SDS011;60508;42.622;25.416;2023-11-19T01:00:16;0.40;;;0.40;;
45077;SDS011;60508;42.622;25.416;2023-11-19T01:02:45;0.82;;;0.50;;
45077;SDS011;60508;42.622;25.416;2023-11-19T01:05:24;0.40;;;0.40;;
45077;SDS011;60508;42.622;25.416;2023-11-19T01:07:52;0.98;;;0.47;;
45077;SDS011;60508;42.622;25.416;2023-11-19T01:10:20;0.40;;;0.32;;
45077;SDS011;60508;42.622;25.416;2023-11-19T01:12:56;0.60;;;0.60;;
45077;SDS011;60508;42.622;25.416;2023-11-19T01:15:23;2.28;;;0.40;;
45077;SDS011;60508;42.622;25.416;2023-11-19T01:17:50;0.50;;;0.43;;
45077;SDS011;60508;42.622;25.416;2023-11-19T01:20:16;2.85;;;0.70;;
45077;SDS011;60508;42.622;25.416;2023-11-19T01:22:43;0.30;;;0.30;;
45077;SDS011;60508;42.622;25.416;2023-11-19T01:25:09;0.93;;;0.40;;
45077;SDS011;60508;42.622;25.416;2023-11-19T01:27:36;0.82;;;0.63;;
45077;SDS011;60508;42.622;25.416;2023-11-19T01:30:13;0.40;;;0.40;;
45077;SDS011;60508;42.622;25.416;2023-11-19T01:32:40;0.40;;;0.40;;
45077;SDS011;60508;42.622;25.416;2023-11-19T01:35:06;0.85;;;0.52;;
45077;SDS011;60508;42.622;25.416;2023-11-19T01:37:44;0.40;;;0.38;;
45077;SDS011;60508;42.622;25.416;2023-11-19T01:40:11;0.65;;;0.63;;
45077;SDS011;60508;42.622;25.416;2023-11-19T01:42:38;1.27;;;0.73;;
45077;SDS011;60508;42.622;25.416;2023-11-19T01:45:05;0.75;;;0.60;;
45077;SDS011;60508;42.622;25.416;2023-11-19T01:47:46;0.52;;;0.40;;
45077;SDS011;60508;42.622;25.416;2023-11-19T01:50:13;0.95;;;0.85;;
45077;SDS011;60508;42.622;25.416;2023-11-19T01:52:40;0.73;;;0.73;;
45077;SDS011;60508;42.622;25.416;2023-11-19T01:55:07;0.88;;;0.52;;
45077;SDS011;60508;42.622;25.416;2023-11-19T01:57:36;0.68;;;0.68;;
45077;SDS011;60508;42.622;25.416;2023-11-19T02:00:04;0.70;;;0.52;;
45077;SDS011;60508;42.622;25.416;2023-11-19T02:02:40;0.50;;;0.50;;
45077;SDS011;60508;42.622;25.416;2023-11-19T02:05:07;0.88;;;0.43;;
45077;SDS011;60508;42.622;25.416;2023-11-19T02:07:33;0.50;;;0.50;;
45077;SDS011;60508;42.622;25.416;2023-11-19T02:10:10;0.50;;;0.50;;
45077;SDS011;60508;42.622;25.416;2023-11-19T02:12:40;0.52;;;0.43;;
45077;SDS011;60508;42.622;25.416;2023-11-19T02:15:10;0.60;;;0.60;;
45077;SDS011;60508;42.622;25.416;2023-11-19T02:17:38;0.70;;;0.70;;
45077;SDS011;60508;42.622;25.416;2023-11-19T02:20:14;1.75;;;0.90;;
45077;SDS011;60508;42.622;25.416;2023-11-19T02:22:43;0.70;;;0.70;;
45077;SDS011;60508;42.622;25.416;2023-11-19T02:25:12;0.70;;;0.70;;
45077;SDS011;60508;42.622;25.416;2023-11-19T02:28:03;0.85;;;0.77;;
45077;SDS011;60508;42.622;25.416;2023-11-19T02:30:30;1.17;;;1.08;;
45077;SDS011;60508;42.622;25.416;2023-11-19T02:32:58;0.50;;;0.50;;
45077;SDS011;60508;42.622;25.416;2023-11-19T02:35:31;0.95;;;0.85;;
45077;SDS011;60508;42.622;25.416;2023-11-19T02:38:09;1.58;;;0.57;;
45077;SDS011;60508;42.622;25.416;2023-11-19T02:40:35;0.75;;;0.75;;
45077;SDS011;60508;42.622;25.416;2023-11-19T02:43:02;0.88;;;0.88;;
45077;SDS011;60508;42.622;25.416;2023-11-19T02:45:29;1.10;;;0.80;;
45077;SDS011;60508;42.622;25.416;2023-11-19T02:47:57;0.98;;;0.82;;
45077;SDS011;60508;42.622;25.416;2023-11-19T02:50:33;1.17;;;0.75;;
45077;SDS011;60508;42.622;25.416;2023-11-19T02:53:00;1.00;;;0.90;;
45077;SDS011;60508;42.622;25.416;2023-11-19T02:55:27;0.88;;;0.88;;
45077;SDS011;60508;42.622;25.416;2023-11-19T02:57:58;2.47;;;1.05;;
45077;SDS011;60508;42.622;25.416;2023-11-19T03:00:26;0.57;;;0.55;;
45077;SDS011;60508;42.622;25.416;2023-11-19T03:03:02;1.83;;;1.00;;
45077;SDS011;60508;42.622;25.416;2023-11-19T03:05:51;1.42;;;1.33;;
45077;SDS011;60508;42.622;25.416;2023-11-19T03:08:18;0.60;;;0.60;;
45077;SDS011;60508;42.622;25.416;2023-11-19T03:10:44;2.53;;;0.73;;
45077;SDS011;60508;42.622;25.416;2023-11-19T03:13:21;0.98;;;0.77;;
45077;SDS011;60508;42.622;25.416;2023-11-19T03:15:48;0.82;;;0.73;;
45077;SDS011;60508;42.622;25.416;2023-11-19T03:18:14;1.30;;;1.20;;
45077;SDS011;60508;42.622;25.416;2023-11-19T03:20:41;1.08;;;0.90;;
45077;SDS011;60508;42.622;25.416;2023-11-19T03:23:18;1.20;;;1.10;;
45077;SDS011;60508;42.622;25.416;2023-11-19T03:25:44;1.50;;;1.15;;
45077;SDS011;60508;42.622;25.416;2023-11-19T03:28:11;1.08;;;1.00;;
45077;SDS011;60508;42.622;25.416;2023-11-19T03:30:47;0.85;;;0.70;;
45077;SDS011;60508;42.622;25.416;2023-11-19T03:33:14;2.83;;;0.77;;
45077;SDS011;60508;42.622;25.416;2023-11-19T03:35:40;1.15;;;1.05;;
45077;SDS011;60508;42.622;25.416;2023-11-19T03:38:18;1.10;;;0.88;;
45077;SDS011;60508;42.622;25.416;2023-11-19T03:40:44;0.75;;;0.75;;
45077;SDS011;60508;42.622;25.416;2023-11-19T03:43:11;8.35;;;1.00;;
45077;SDS011;60508;42.622;25.416;2023-11-19T03:45:39;1.05;;;0.90;;
45077;SDS011;60508;42.622;25.416;2023-11-19T03:48:08;1.17;;;1.08;;
45077;SDS011;60508;42.622;25.416;2023-11-19T03:50:45;1.30;;;1.13;;
45077;SDS011;60508;42.622;25.416;2023-11-19T03:53:12;1.20;;;1.10;;
45077;SDS011;60508;42.622;25.416;2023-11-19T03:55:38;1.10;;;1.00;;
45077;SDS011;60508;42.622;25.416;2023-11-19T03:58:15;1.15;;;0.90;;
45077;SDS011;60508;42.622;25.416;2023-11-19T04:00:42;1.15;;;0.75;;
45077;SDS011;60508;42.622;25.416;2023-11-19T04:03:08;1.58;;;0.80;;
45077;SDS011;60508;42.622;25.416;2023-11-19T04:05:45;1.35;;;1.00;;
45077;SDS011;60508;42.622;25.416;2023-11-19T04:08:11;2.67;;;1.10;;
45077;SDS011;60508;42.622;25.416;2023-11-19T04:10:38;2.22;;;1.15;;
45077;SDS011;60508;42.622;25.416;2023-11-19T04:13:04;1.10;;;1.00;;
45077;SDS011;60508;42.622;25.416;2023-11-19T04:15:41;1.17;;;0.93;;
45077;SDS011;60508;42.622;25.416;2023-11-19T04:18:07;1.25;;;0.95;;
45077;SDS011;60508;42.622;25.416;2023-11-19T04:20:35;0.80;;;0.80;;
45077;SDS011;60508;42.622;25.416;2023-11-19T04:23:12;1.25;;;1.00;;
45077;SDS011;60508;42.622;25.416;2023-11-19T04:25:39;0.63;;;0.63;;
45077;SDS011;60508;42.622;25.416;2023-11-19T04:28:06;1.20;;;0.90;;
45077;SDS011;60508;42.622;25.416;2023-11-19T04:30:34;0.90;;;0.90;;
45077;SDS011;60508;42.622;25.416;2023-11-19T04:33:01;1.40;;;1.10;;
45077;SDS011;60508;42.622;25.416;2023-11-19T04:35:28;1.50;;;1.25;;
45077;SDS011;60508;42.622;25.416;2023-11-19T04:38:04;0.77;;;0.77;;
45077;SDS011;60508;42.622;25.416;2023-11-19T04:40:31;1.55;;;1.23;;
45077;SDS011;60508;42.622;25.416;2023-11-19T04:42:59;1.05;;;0.90;;
45077;SDS011;60508;42.622;25.416;2023-11-19T04:45:36;1.00;;;0.90;;
45077;SDS011;60508;42.622;25.416;2023-11-19T04:48:03;2.30;;;0.98;;
45077;SDS011;60508;42.622;25.416;2023-11-19T04:50:29;1.00;;;1.00;;
45077;SDS011;60508;42.622;25.416;2023-11-19T04:53:07;1.00;;;0.98;;
45077;SDS011;60508;42.622;25.416;2023-11-19T04:55:33;1.15;;;1.05;;
45077;SDS011;60508;42.622;25.416;2023-11-19T04:58:00;3.63;;;1.75;;
45077;SDS011;60508;42.622;25.416;2023-11-19T05:00:36;1.52;;;1.10;;
45077;SDS011;60508;42.622;25.416;2023-11-19T05:03:04;0.90;;;0.90;;
45077;SDS011;60508;42.622;25.416;2023-11-19T05:05:31;1.27;;;1.17;;
45077;SDS011;60508;42.622;25.416;2023-11-19T05:08:00;2.03;;;1.75;;
45077;SDS011;60508;42.622;25.416;2023-11-19T05:10:27;0.93;;;0.93;;
45077;SDS011;60508;42.622;25.416;2023-11-19T05:12:54;1.40;;;1.20;;
45077;SDS011;60508;42.622;25.416;2023-11-19T05:15:22;1.30;;;1.10;;
45077;SDS011;60508;42.622;25.416;2023-11-19T05:17:58;1.63;;;1.40;;
45077;SDS011;60508;42.622;25.416;2023-11-19T05:20:25;1.30;;;1.20;;
45077;SDS011;60508;42.622;25.416;2023-11-19T05:22:51;1.15;;;0.80;;
45077;SDS011;60508;42.622;25.416;2023-11-19T05:25:19;1.30;;;1.20;;
45077;SDS011;60508;42.622;25.416;2023-11-19T05:27:48;1.67;;;1.45;;
45077;SDS011;60508;42.622;25.416;2023-11-19T05:30:15;1.02;;;0.98;;
45077;SDS011;60508;42.622;25.416;2023-11-19T05:36:05;1.42;;;1.33;;
45077;SDS011;60508;42.622;25.416;2023-11-19T05:41:11;1.63;;;1.30;;
45077;SDS011;60508;42.622;25.416;2023-11-19T05:43:37;1.40;;;1.30;;
45077;SDS011;60508;42.622;25.416;2023-11-19T05:46:07;1.95;;;1.60;;
45077;SDS011;60508;42.622;25.416;2023-11-19T05:48:43;1.80;;;1.38;;
45077;SDS011;60508;42.622;25.416;2023-11-19T05:51:11;2.88;;;1.55;;
45077;SDS011;60508;42.622;25.416;2023-11-19T05:53:38;3.83;;;1.58;;
45077;SDS011;60508;42.622;25.416;2023-11-19T05:56:04;1.45;;;1.17;;
45077;SDS011;60508;42.622;25.416;2023-11-19T05:58:44;3.17;;;1.80;;
45077;SDS011;60508;42.622;25.416;2023-11-19T06:01:11;1.25;;;1.15;;
45077;SDS011;60508;42.622;25.416;2023-11-19T06:03:38;2.40;;;1.70;;
45077;SDS011;60508;42.622;25.416;2023-11-19T06:06:04;2.38;;;2.10;;
45077;SDS011;60508;42.622;25.416;2023-11-19T06:08:32;2.10;;;1.58;;
45077;SDS011;60508;42.622;25.416;2023-11-19T06:11:10;1.73;;;1.23;;
45077;SDS011;60508;42.622;25.416;2023-11-19T06:13:44;2.47;;;1.50;;
45077;SDS011;60508;42.622;25.416;2023-11-19T06:16:11;1.33;;;1.23;;
45077;SDS011;60508;42.622;25.416;2023-11-19T06:18:38;2.15;;;1.50;;
45077;SDS011;60508;42.622;25.416;2023-11-19T06:21:05;2.20;;;1.38;;
45077;SDS011;60508;42.622;25.416;2023-11-19T06:23:31;1.73;;;1.63;;
45077;SDS011;60508;42.622;25.416;2023-11-19T06:25:58;1.63;;;1.50;;
45077;SDS011;60508;42.622;25.416;2023-11-19T06:28:25;2.58;;;2.38;;
45077;SDS011;60508;42.622;25.416;2023-11-19T06:30:55;2.10;;;1.77;;
45077;SDS011;60508;42.622;25.416;2023-11-19T06:33:21;1.77;;;1.63;;
45077;SDS011;60508;42.622;25.416;2023-11-19T06:35:48;3.35;;;2.00;;
45077;SDS011;60508;42.622;25.416;2023-11-19T06:38:15;1.73;;;1.63;;
45077;SDS011;60508;42.622;25.416;2023-11-19T06:40:42;1.85;;;1.75;;
45077;SDS011;60508;42.622;25.416;2023-11-19T06:43:17;2.00;;;1.80;;
45077;SDS011;60508;42.622;25.416;2023-11-19T06:45:44;2.00;;;1.75;;
45077;SDS011;60508;42.622;25.416;2023-11-19T06:48:11;2.33;;;2.13;;
45077;SDS011;60508;42.622;25.416;2023-11-19T06:50:37;2.05;;;1.80;;
45077;SDS011;60508;42.622;25.416;2023-11-19T06:53:14;4.30;;;3.00;;
45077;SDS011;60508;42.622;25.416;2023-11-19T06:55:41;2.28;;;1.98;;
45077;SDS011;60508;42.622;25.416;2023-11-19T06:58:08;1.15;;;1.05;;
45077;SDS011;60508;42.622;25.416;2023-11-19T07:00:44;3.08;;;2.45;;
45077;SDS011;60508;42.622;25.416;2023-11-19T07:03:13;3.38;;;1.98;;
45077;SDS011;60508;42.622;25.416;2023-11-19T07:05:40;1.65;;;1.50;;
45077;SDS011;60508;42.622;25.416;2023-11-19T07:08:07;1.27;;;1.17;;
45077;SDS011;60508;42.622;25.416;2023-11-19T07:10:44;2.55;;;2.35;;
45077;SDS011;60508;42.622;25.416;2023-11-19T07:13:13;2.10;;;1.58;;
45077;SDS011;60508;42.622;25.416;2023-11-19T07:15:40;2.33;;;1.75;;
45077;SDS011;60508;42.622;25.416;2023-11-19T07:18:07;1.60;;;1.50;;
45077;SDS011;60508;42.622;25.416;2023-11-19T07:20:35;3.58;;;2.28;;
45077;SDS011;60508;42.622;25.416;2023-11-19T07:23:04;1.90;;;1.80;;
45077;SDS011;60508;42.622;25.416;2023-11-19T07:25:40;3.22;;;2.92;;
45077;SDS011;60508;42.622;25.416;2023-11-19T07:28:07;4.75;;;3.50;;
45077;SDS011;60508;42.622;25.416;2023-11-19T07:30:34;7.43;;;1.90;;
45077;SDS011;60508;42.622;25.416;2023-11-19T07:33:14;2.33;;;2.00;;
45077;SDS011;60508;42.622;25.416;2023-11-19T07:35:42;3.60;;;2.50;;
45077;SDS011;60508;42.622;25.416;2023-11-19T07:38:09;2.78;;;2.47;;
45077;SDS011;60508;42.622;25.416;2023-11-19T07:40:46;9.38;;;6.10;;
45077;SDS011;60508;42.622;25.416;2023-11-19T07:43:14;6.65;;;4.05;;
45077;SDS011;60508;42.622;25.416;2023-11-19T07:45:40;5.22;;;4.15;;
45077;SDS011;60508;42.622;25.416;2023-11-19T07:50:37;2.45;;;2.25;;
45077;SDS011;60508;42.622;25.416;2023-11-19T07:53:03;6.25;;;4.15;;
45077;SDS011;60508;42.622;25.416;2023-11-19T07:55:37;9.50;;;5.68;;
45077;SDS011;60508;42.622;25.416;2023-11-19T07:58:04;13.88;;;7.72;;
45077;SDS011;60508;42.622;25.416;2023-11-19T08:00:30;20.65;;;8.75;;
45077;SDS011;60508;42.622;25.416;2023-11-19T08:02:57;4.90;;;3.47;;
45077;SDS011;60508;42.622;25.416;2023-11-19T08:05:23;7.63;;;4.40;;
45077;SDS011;60508;42.622;25.416;2023-11-19T08:07:50;5.85;;;3.72;;
45077;SDS011;60508;42.622;25.416;2023-11-19T08:10:19;4.25;;;3.00;;
45077;SDS011;60508;42.622;25.416;2023-11-19T08:12:46;2.97;;;2.22;;
45077;SDS011;60508;42.622;25.416;2023-11-19T08:15:12;7.68;;;5.28;;
45077;SDS011;60508;42.622;25.416;2023-11-19T08:17:46;9.63;;;6.30;;
45077;SDS011;60508;42.622;25.416;2023-11-19T08:20:13;8.25;;;5.28;;
45077;SDS011;60508;42.622;25.416;2023-11-19T08:22:40;5.38;;;3.60;;
45077;SDS011;60508;42.622;25.416;2023-11-19T08:25:16;2.92;;;2.10;;
45077;SDS011;60508;42.622;25.416;2023-11-19T08:27:43;2.63;;;2.42;;
45077;SDS011;60508;42.622;25.416;2023-11-19T08:30:09;3.00;;;2.17;;
45077;SDS011;60508;42.622;25.416;2023-11-19T08:32:37;8.25;;;4.78;;
45077;SDS011;60508;42.622;25.416;2023-11-19T08:35:03;5.68;;;4.10;;
45077;SDS011;60508;42.622;25.416;2023-11-19T08:37:31;9.82;;;5.88;;
45077;SDS011;60508;42.622;25.416;2023-11-19T08:39:58;4.85;;;3.67;;
45077;SDS011;60508;42.622;25.416;2023-11-19T08:42:25;3.03;;;2.25;;
45077;SDS011;60508;42.622;25.416;2023-11-19T08:45:02;3.38;;;2.50;;
45077;SDS011;60508;42.622;25.416;2023-11-19T08:47:29;1.38;;;1.20;;
45077;SDS011;60508;42.622;25.416;2023-11-19T08:49:55;1.58;;;1.48;;
45077;SDS011;60508;42.622;25.416;2023-11-19T08:52:22;3.45;;;2.50;;
45077;SDS011;60508;42.622;25.416;2023-11-19T08:54:48;2.45;;;1.77;;
45077;SDS011;60508;42.622;25.416;2023-11-19T08:57:23;1.60;;;1.50;;
45077;SDS011;60508;42.622;25.416;2023-11-19T08:59:50;1.63;;;1.08;;
45077;SDS011;60508;42.622;25.416;2023-11-19T09:02:16;4.70;;;2.90;;
45077;SDS011;60508;42.622;25.416;2023-11-19T09:04:52;5.63;;;3.63;;
45077;SDS011;60508;42.622;25.416;2023-11-19T09:07:19;2.53;;;1.98;;
45077;SDS011;60508;42.622;25.416;2023-11-19T09:09:46;3.53;;;2.65;;
45077;SDS011;60508;42.622;25.416;2023-11-19T09:12:12;2.72;;;2.45;;
45077;SDS011;60508;42.622;25.416;2023-11-19T09:14:40;3.20;;;2.40;;
45077;SDS011;60508;42.622;25.416;2023-11-19T09:17:19;3.03;;;2.28;;
45077;SDS011;60508;42.622;25.416;2023-11-19T09:19:45;2.35;;;1.80;;
45077;SDS011;60508;42.622;25.416;2023-11-19T09:22:12;2.25;;;1.67;;
45077;SDS011;60508;42.622;25.416;2023-11-19T09:24:48;1.52;;;1.40;;
45077;SDS011;60508;42.622;25.416;2023-11-19T09:27:15;1.77;;;1.63;;
45077;SDS011;60508;42.622;25.416;2023-11-19T09:29:41;1.92;;;1.70;;
45077;SDS011;60508;42.622;25.416;2023-11-19T09:32:10;3.00;;;1.70;;
45077;SDS011;60508;42.622;25.416;2023-11-19T09:34:37;1.70;;;1.60;;
45077;SDS011;60508;42.622;25.416;2023-11-19T09:37:03;2.65;;;2.00;;
45077;SDS011;60508;42.622;25.416;2023-11-19T09:39:31;4.32;;;3.25;;
45077;SDS011;60508;42.622;25.416;2023-11-19T09:42:07;7.18;;;5.15;;
45077;SDS011;60508;42.622;25.416;2023-11-19T09:44:34;3.10;;;2.80;;
45077;SDS011;60508;42.622;25.416;2023-11-19T09:47:02;2.72;;;2.28;;
45077;SDS011;60508;42.622;25.416;2023-11-19T09:49:41;2.08;;;1.70;;
45077;SDS011;60508;42.622;25.416;2023-11-19T09:52:08;1.88;;;1.70;;
45077;SDS011;60508;42.622;25.416;2023-11-19T09:54:35;1.85;;;1.65;;
45077;SDS011;60508;42.622;25.416;2023-11-19T09:57:02;3.47;;;1.58;;
45077;SDS011;60508;42.622;25.416;2023-11-19T09:59:30;2.67;;;1.70;;
45077;SDS011;60508;42.622;25.416;2023-11-19T10:02:18;1.98;;;1.55;;
45077;SDS011;60508;42.622;25.416;2023-11-19T10:04:55;3.60;;;2.10;;
45077;SDS011;60508;42.622;25.416;2023-11-19T10:07:22;2.17;;;1.60;;
45077;SDS011;60508;42.622;25.416;2023-11-19T10:09:48;1.60;;;1.23;;
45077;SDS011;60508;42.622;25.416;2023-11-19T10:12:17;1.02;;;0.93;;
45077;SDS011;60508;42.622;25.416;2023-11-19T10:14:44;1.65;;;1.55;;
45077;SDS011;60508;42.622;25.416;2023-11-19T10:17:16;2.20;;;2.00;;
45077;SDS011;60508;42.622;25.416;2023-11-19T10:19:59;3.58;;;1.25;;
45077;SDS011;60508;42.622;25.416;2023-11-19T10:22:31;1.52;;;1.30;;
45077;SDS011;60508;42.622;25.416;2023-11-19T10:25:25;1.55;;;1.45;;
45077;SDS011;60508;42.622;25.416;2023-11-19T10:27:53;1.00;;;0.90;;
45077;SDS011;60508;42.622;25.416;2023-11-19T10:30:21;3.28;;;1.52;;
45077;SDS011;60508;42.622;25.416;2023-11-19T10:33:09;1.70;;;1.60;;
45077;SDS011;60508;42.622;25.416;2023-11-19T10:35:51;2.17;;;1.25;;
45077;SDS011;60508;42.622;25.416;2023-11-19T10:38:30;1.80;;;1.58;;
45077;SDS011;60508;42.622;25.416;2023-11-19T10:40:57;1.30;;;1.20;;
45077;SDS011;60508;42.622;25.416;2023-11-19T10:43:25;1.42;;;1.33;;
45077;SDS011;60508;42.622;25.416;2023-11-19T10:46:19;0.90;;;0.85;;
45077;SDS011;60508;42.622;25.416;2023-11-19T10:49:04;1.10;;;1.00;;
45077;SDS011;60508;42.622;25.416;2023-11-19T10:51:31;1.45;;;1.35;;
45077;SDS011;60508;42.622;25.416;2023-11-19T10:54:06;2.13;;;1.92;;
45077;SDS011;60508;42.622;25.416;2023-11-19T10:56:38;3.42;;;1.70;;
45077;SDS011;60508;42.622;25.416;2023-11-19T10:59:10;1.13;;;1.00;;
45077;SDS011;60508;42.622;25.416;2023-11-19T11:01:43;2.28;;;1.98;;
45077;SDS011;60508;42.622;25.416;2023-11-19T11:04:14;1.90;;;1.42;;
45077;SDS011;60508;42.622;25.416;2023-11-19T11:06:46;1.83;;;1.08;;
45077;SDS011;60508;42.622;25.416;2023-11-19T11:09:14;1.67;;;1.38;;
45077;SDS011;60508;42.622;25.416;2023-11-19T11:11:51;1.45;;;1.20;;
45077;SDS011;60508;42.622;25.416;2023-11-19T11:14:21;3.55;;;2.78;;
45077;SDS011;60508;42.622;25.416;2023-11-19T11:16:49;1.57;;;1.47;;
45077;SDS011;60508;42.622;25.416;2023-11-19T11:19:17;1.88;;;1.15;;
45077;SDS011;60508;42.622;25.416;2023-11-19T11:21:46;1.50;;;1.17;;
45077;SDS011;60508;42.622;25.416;2023-11-19T11:24:40;1.33;;;1.23;;
45077;SDS011;60508;42.622;25.416;2023-11-19T11:27:40;1.02;;;0.95;;
45077;SDS011;60508;42.622;25.416;2023-11-19T11:36:11;4.13;;;2.55;;
45077;SDS011;60508;42.622;25.416;2023-11-19T11:38:44;1.27;;;1.17;;
45077;SDS011;60508;42.622;25.416;2023-11-19T11:41:20;1.30;;;1.00;;
45077;SDS011;60508;42.622;25.416;2023-11-19T11:43:47;1.10;;;1.00;;
45077;SDS011;60508;42.622;25.416;2023-11-19T11:49:06;1.20;;;1.10;;
45077;SDS011;60508;42.622;25.416;2023-11-19T11:57:03;2.28;;;1.05;;
45077;SDS011;60508;42.622;25.416;2023-11-19T12:02:12;1.65;;;1.17;;
45077;SDS011;60508;42.622;25.416;2023-11-19T12:04:48;7.45;;;2.10;;
45077;SDS011;60508;42.622;25.416;2023-11-19T12:07:32;1.20;;;1.10;;
45077;SDS011;60508;42.622;25.416;2023-11-19T12:10:06;3.20;;;0.90;;
45077;SDS011;60508;42.622;25.416;2023-11-19T12:12:35;0.73;;;0.70;;
45077;SDS011;60508;42.622;25.416;2023-11-19T12:15:07;0.85;;;0.82;;
45077;SDS011;60508;42.622;25.416;2023-11-19T12:17:52;1.25;;;1.00;;
45077;SDS011;60508;42.622;25.416;2023-11-19T12:20:20;0.73;;;0.70;;
45077;SDS011;60508;42.622;25.416;2023-11-19T12:23:06;1.15;;;1.05;;
45077;SDS011;60508;42.622;25.416;2023-11-19T12:25:36;0.80;;;0.80;;
45077;SDS011;60508;42.622;25.416;2023-11-19T12:28:14;1.35;;;1.15;;
45077;SDS011;60508;42.622;25.416;2023-11-19T12:30:43;1.05;;;0.93;;
45077;SDS011;60508;42.622;25.416;2023-11-19T12:33:11;0.95;;;0.93;;
45077;SDS011;60508;42.622;25.416;2023-11-19T12:35:42;0.85;;;0.75;;
45077;SDS011;60508;42.622;25.416;2023-11-19T12:41:03;1.35;;;1.25;;
45077;SDS011;60508;42.622;25.416;2023-11-19T12:43:30;1.42;;;1.00;;
45077;SDS011;60508;42.622;25.416;2023-11-19T12:45:57;1.15;;;1.05;;
45077;SDS011;60508;42.622;25.416;2023-11-19T12:48:24;1.02;;;0.82;;
45077;SDS011;60508;42.622;25.416;2023-11-19T12:51:00;4.53;;;0.95;;
45077;SDS011;60508;42.622;25.416;2023-11-19T12:53:27;2.13;;;1.38;;
45077;SDS011;60508;42.622;25.416;2023-11-19T12:55:55;1.30;;;1.17;;
45077;SDS011;60508;42.622;25.416;2023-11-19T12:58:36;1.42;;;1.05;;
45077;SDS011;60508;42.622;25.416;2023-11-19T13:03:46;2.03;;;1.25;;
45077;SDS011;60508;42.622;25.416;2023-11-19T13:06:14;2.22;;;1.63;;
45077;SDS011;60508;42.622;25.416;2023-11-19T13:08:42;2.15;;;1.95;;
45077;SDS011;60508;42.622;25.416;2023-11-19T13:11:11;1.88;;;1.20;;
45077;SDS011;60508;42.622;25.416;2023-11-19T13:13:57;0.70;;;0.70;;
45077;SDS011;60508;42.622;25.416;2023-11-19T13:16:26;2.70;;;1.42;;
45077;SDS011;60508;42.622;25.416;2023-11-19T13:18:53;0.98;;;0.93;;
45077;SDS011;60508;42.622;25.416;2023-11-19T13:21:23;2.13;;;1.33;;
45077;SDS011;60508;42.622;25.416;2023-11-19T13:23:50;1.15;;;1.00;;
45077;SDS011;60508;42.622;25.416;2023-11-19T13:26:16;1.35;;;0.90;;
45077;SDS011;60508;42.622;25.416;2023-11-19T13:28:43;2.17;;;1.23;;
45077;SDS011;60508;42.622;25.416;2023-11-19T13:31:19;1.63;;;1.48;;
45077;SDS011;60508;42.622;25.416;2023-11-19T13:33:46;1.70;;;1.60;;
45077;SDS011;60508;42.622;25.416;2023-11-19T13:36:12;1.52;;;1.42;;
45077;SDS011;60508;42.622;25.416;2023-11-19T13:38:50;2.17;;;1.98;;
45077;SDS011;60508;42.622;25.416;2023-11-19T13:41:17;2.40;;;1.60;;
45077;SDS011;60508;42.622;25.416;2023-11-19T13:43:44;4.20;;;1.80;;
45077;SDS011;60508;42.622;25.416;2023-11-19T13:46:21;2.45;;;1.95;;
45077;SDS011;60508;42.622;25.416;2023-11-19T13:48:54;3.33;;;1.42;;
45077;SDS011;60508;42.622;25.416;2023-11-19T13:51:23;1.48;;;1.27;;
45077;SDS011;60508;42.622;25.416;2023-11-19T13:53:50;3.10;;;1.73;;
45077;SDS011;60508;42.622;25.416;2023-11-19T13:56:26;1.60;;;1.45;;
45077;SDS011;60508;42.622;25.416;2023-11-19T13:58:53;2.40;;;1.27;;
45077;SDS011;60508;42.622;25.416;2023-11-19T14:01:20;1.52;;;1.08;;
45077;SDS011;60508;42.622;25.416;2023-11-19T14:04:07;6.15;;;1.40;;
45077;SDS011;60508;42.622;25.416;2023-11-19T14:06:47;7.28;;;5.00;;
45077;SDS011;60508;42.622;25.416;2023-11-19T14:11:40;4.88;;;2.50;;
45077;SDS011;60508;42.622;25.416;2023-11-19T14:14:17;2.90;;;2.15;;
45077;SDS011;60508;42.622;25.416;2023-11-19T14:16:46;3.05;;;2.70;;
45077;SDS011;60508;42.622;25.416;2023-11-19T14:19:16;1.52;;;1.33;;
45077;SDS011;60508;42.622;25.416;2023-11-19T14:21:43;2.45;;;1.90;;
45077;SDS011;60508;42.622;25.416;2023-11-19T14:24:26;4.90;;;1.67;;
45077;SDS011;60508;42.622;25.416;2023-11-19T14:26:58;2.08;;;1.77;;
45077;SDS011;60508;42.622;25.416;2023-11-19T14:32:00;2.00;;;1.58;;
45077;SDS011;60508;42.622;25.416;2023-11-19T14:34:29;2.05;;;1.55;;
45077;SDS011;60508;42.622;25.416;2023-11-19T14:36:56;2.80;;;2.30;;
45077;SDS011;60508;42.622;25.416;2023-11-19T14:39:36;3.22;;;2.70;;
45077;SDS011;60508;42.622;25.416;2023-11-19T14:42:07;4.13;;;1.90;;
45077;SDS011;60508;42.622;25.416;2023-11-19T14:44:37;2.63;;;1.70;;
45077;SDS011;60508;42.622;25.416;2023-11-19T14:47:14;3.03;;;1.77;;
45077;SDS011;60508;42.622;25.416;2023-11-19T14:49:54;2.67;;;2.00;;
45077;SDS011;60508;42.622;25.416;2023-11-19T14:52:21;1.70;;;1.60;;
45077;SDS011;60508;42.622;25.416;2023-11-19T14:54:51;1.67;;;1.50;;
45077;SDS011;60508;42.622;25.416;2023-11-19T14:57:24;2.05;;;1.80;;
45077;SDS011;60508;42.622;25.416;2023-11-19T14:59:51;1.67;;;1.55;;
45077;SDS011;60508;42.622;25.416;2023-11-19T15:02:31;1.55;;;1.45;;
45077;SDS011;60508;42.622;25.416;2023-11-19T15:05:01;2.00;;;1.75;;
45077;SDS011;60508;42.622;25.416;2023-11-19T15:07:42;3.13;;;2.17;;
45077;SDS011;60508;42.622;25.416;2023-11-19T15:10:12;2.25;;;2.05;;
45077;SDS011;60508;42.622;25.416;2023-11-19T15:12:56;5.03;;;4.28;;
45077;SDS011;60508;42.622;25.416;2023-11-19T15:15:22;2.15;;;1.95;;
45077;SDS011;60508;42.622;25.416;2023-11-19T15:17:58;2.45;;;2.25;;
45077;SDS011;60508;42.622;25.416;2023-11-19T15:20:25;1.70;;;1.60;;
45077;SDS011;60508;42.622;25.416;2023-11-19T15:22:57;3.00;;;1.92;;
45077;SDS011;60508;42.622;25.416;2023-11-19T15:25:34;1.92;;;1.67;;
45077;SDS011;60508;42.622;25.416;2023-11-19T15:28:02;2.55;;;1.80;;